createdAt,value
2016-05-09T00:00:16.247Z,53.19
2016-05-09T00:01:16.265Z,53.38
2016-05-09T00:02:16.316Z,53.48
2016-05-09T00:03:16.349Z,53.5
2016-05-09T00:04:16.384Z,53.28
2016-05-09T00:05:16.432Z,54.44
2016-05-09T00:06:16.467Z,54.24
2016-05-09T00:07:16.501Z,54.05
2016-05-09T00:08:16.551Z,53.41
2016-05-09T00:09:16.584Z,53.12
2016-05-09T00:10:16.618Z,52.74
2016-05-09T00:11:16.667Z,52.64
2016-05-09T00:12:16.701Z,53.28
2016-05-09T00:13:16.736Z,53.41
2016-05-09T00:14:16.770Z,53.28
2016-05-09T00:15:16.803Z,53.09
2016-05-09T00:16:16.681Z,53.38
2016-05-09T00:17:16.886Z,52.91
2016-05-09T00:18:16.921Z,53.58
2016-05-09T00:19:16.955Z,53.22
2016-05-09T00:20:17.005Z,52.83
2016-05-09T00:21:17.039Z,53.41
2016-05-09T00:22:16.916Z,53.58
2016-05-09T00:23:17.106Z,53.28
2016-05-09T00:24:17.140Z,53.09
2016-05-09T00:25:17.190Z,53.58
2016-05-09T00:26:17.223Z,53.38
2016-05-09T00:27:17.258Z,53.67
2016-05-09T00:28:17.291Z,53.09
2016-05-09T00:29:17.341Z,53.48
2016-05-09T00:30:17.375Z,53.19
2016-05-09T00:31:17.409Z,53.38
2016-05-09T00:32:17.443Z,53.09
2016-05-09T00:33:17.337Z,53.19
2016-05-09T00:34:17.526Z,53.58
2016-05-09T00:35:17.560Z,53.28
2016-05-09T00:36:17.610Z,53.28
2016-05-09T00:37:17.643Z,53.48
2016-05-09T00:38:17.678Z,53.58
2016-05-09T00:39:17.556Z,53.58
2016-05-09T00:40:17.746Z,53.28
2016-05-09T00:41:17.779Z,53.19
2016-05-09T00:42:17.829Z,53.38
2016-05-09T00:43:17.864Z,53.48
2016-05-09T00:44:17.757Z,53.48
2016-05-09T00:45:17.946Z,53.96
2016-05-09T00:46:17.981Z,54.34
2016-05-09T00:47:18.014Z,54.53
2016-05-09T00:48:18.064Z,53.58
2016-05-09T00:49:18.097Z,54.05
2016-05-09T00:50:18.133Z,54.53
2016-05-09T00:51:18.166Z,53.58
2016-05-09T00:52:18.200Z,53.86
2016-05-09T00:53:18.249Z,54.32
2016-05-09T00:54:18.283Z,54.53
2016-05-09T00:55:18.317Z,53.67
2016-05-09T00:56:18.351Z,53.38
2016-05-09T00:57:18.244Z,53.96
2016-05-09T00:58:18.435Z,54.34
2016-05-09T00:59:18.516Z,53.58
2016-05-09T01:00:18.346Z,53.48
2016-05-09T01:01:18.552Z,53.58
2016-05-09T01:02:18.586Z,53.19
2016-05-09T01:03:18.620Z,53.67
2016-05-09T01:04:18.654Z,53
2016-05-09T01:05:18.704Z,53.28
2016-05-09T01:06:18.737Z,53.09
2016-05-09T01:07:18.771Z,53.19
2016-05-09T01:08:18.648Z,53.38
2016-05-09T01:09:18.840Z,53.58
2016-05-09T01:10:18.890Z,53.67
2016-05-09T01:11:18.923Z,53
2016-05-09T01:12:18.956Z,53.28
2016-05-09T01:13:18.990Z,53.19
2016-05-09T01:14:19.039Z,53.28
2016-05-09T01:15:18.918Z,53.28
2016-05-09T01:16:19.109Z,53.28
2016-05-09T01:17:19.142Z,52.52
2016-05-09T01:18:19.176Z,53.38
2016-05-09T01:19:19.225Z,53.19
2016-05-09T01:20:19.259Z,53.38
2016-05-09T01:21:19.293Z,52.91
2016-05-09T01:22:19.328Z,53.09
2016-05-09T01:23:19.377Z,53.74
2016-05-09T01:24:19.411Z,53.28
2016-05-09T01:25:19.444Z,53.48
2016-05-09T01:26:19.479Z,53.26
2016-05-09T01:27:19.513Z,53.09
2016-05-09T01:28:19.563Z,53
2016-05-09T01:29:19.440Z,53
2016-05-09T01:30:19.630Z,53.28
2016-05-09T01:31:19.679Z,52.52
2016-05-09T01:32:19.713Z,53.19
2016-05-09T01:33:19.748Z,53.26
2016-05-09T01:34:19.782Z,53.28
2016-05-09T01:35:20.034Z,53
2016-05-09T01:36:19.849Z,53.36
2016-05-09T01:37:19.898Z,53.36
2016-05-09T01:38:19.933Z,53.26
2016-05-09T01:39:19.968Z,53.45
2016-05-09T01:40:19.845Z,53.26
2016-05-09T01:41:20.051Z,53.26
2016-05-09T01:42:20.100Z,53.26
2016-05-09T01:43:20.117Z,53.45
2016-05-09T01:44:20.153Z,53.07
2016-05-09T01:45:20.186Z,53.45
2016-05-09T01:46:20.220Z,53.07
2016-05-09T01:47:20.270Z,53.55
2016-05-09T01:48:20.303Z,53.16
2016-05-09T01:49:20.181Z,53.36
2016-05-09T01:50:20.371Z,53.45
2016-05-09T01:51:20.265Z,53.36
2016-05-09T01:52:20.455Z,52.87
2016-05-09T01:53:20.489Z,52.97
2016-05-09T01:54:20.522Z,52.87
2016-05-09T01:55:20.557Z,53.36
2016-05-09T01:56:20.606Z,53.36
2016-05-09T01:57:20.641Z,53.16
2016-05-09T01:58:20.674Z,53.26
2016-05-09T01:59:20.724Z,53.26
2016-05-09T02:00:20.757Z,53.26
2016-05-09T02:01:20.791Z,53.26
2016-05-09T02:02:20.826Z,53.16
2016-05-09T02:03:20.719Z,53.45
2016-05-09T02:04:20.894Z,53.16
2016-05-09T02:05:20.943Z,53.64
2016-05-09T02:06:20.820Z,53.55
2016-05-09T02:07:21.010Z,53.74
2016-05-09T02:08:21.046Z,53.64
2016-05-09T02:09:21.095Z,53.55
2016-05-09T02:10:21.129Z,53.45
2016-05-09T02:11:21.162Z,53.93
2016-05-09T02:12:21.212Z,54.32
2016-05-09T02:13:21.230Z,53.55
2016-05-09T02:14:21.124Z,53.93
2016-05-09T02:15:21.314Z,53.55
2016-05-09T02:16:21.364Z,53.55
2016-05-09T02:17:21.397Z,53.45
2016-05-09T02:18:21.415Z,53.36
2016-05-09T02:19:21.464Z,53.36
2016-05-09T02:20:21.499Z,53.36
2016-05-09T02:21:21.533Z,53.64
2016-05-09T02:22:21.567Z,53.83
2016-05-09T02:23:21.857Z,53.83
2016-05-09T02:24:21.641Z,54.5
2016-05-09T02:25:21.534Z,54.41
2016-05-09T02:26:21.725Z,53.93
2016-05-09T02:27:21.760Z,54.6
2016-05-09T02:28:21.793Z,53.45
2016-05-09T02:29:21.826Z,53.74
2016-05-09T02:30:21.876Z,53.74
2016-05-09T02:31:21.910Z,53.74
2016-05-09T02:32:21.945Z,53.83
2016-05-09T02:33:21.979Z,53.74
2016-05-09T02:34:22.012Z,54.03
2016-05-09T02:35:22.062Z,54.32
2016-05-09T02:36:21.939Z,54.22
2016-05-09T02:37:22.129Z,54.5
2016-05-09T02:38:22.164Z,54.57
2016-05-09T02:39:22.198Z,54.77
2016-05-09T02:40:22.247Z,54.6
2016-05-09T02:41:22.281Z,54.79
2016-05-09T02:42:22.315Z,54.6
2016-05-09T02:43:22.364Z,54.6
2016-05-09T02:44:22.758Z,54.5
2016-05-09T02:45:22.433Z,54.48
2016-05-09T02:46:22.466Z,54.67
2016-05-09T02:47:22.500Z,54.77
2016-05-09T02:48:22.534Z,55.24
2016-05-09T02:49:22.584Z,55.24
2016-05-09T02:50:22.618Z,55.15
2016-05-09T02:51:22.652Z,55.73
2016-05-09T02:52:22.685Z,55.44
2016-05-09T02:53:22.719Z,55.44
2016-05-09T02:54:22.753Z,55.53
2016-05-09T02:55:22.803Z,55.24
2016-05-09T02:56:22.821Z,54.96
2016-05-09T02:57:22.871Z,54.86
2016-05-09T02:58:22.904Z,54.48
2016-05-09T02:59:23.393Z,54.89
2016-05-09T03:00:22.988Z,54.79
2016-05-09T03:01:22.866Z,54.89
2016-05-09T03:02:22.900Z,54.99
2016-05-09T03:03:23.090Z,54.86
2016-05-09T03:04:22.967Z,54.86
2016-05-09T03:05:23.173Z,54.96
2016-05-09T03:06:23.207Z,55.15
2016-05-09T03:07:23.085Z,55.15
2016-05-09T03:08:23.275Z,54.96
2016-05-09T03:09:23.310Z,55.24
2016-05-09T03:10:23.375Z,55.44
2016-05-09T03:11:23.392Z,55.24
2016-05-09T03:12:23.427Z,55.63
2016-05-09T03:13:23.461Z,55.34
2016-05-09T03:14:23.511Z,55.24
2016-05-09T03:15:23.544Z,55.44
2016-05-09T03:16:23.578Z,55.63
2016-05-09T03:17:23.612Z,56.01
2016-05-09T03:18:23.661Z,55.63
2016-05-09T03:19:23.696Z,56.39
2016-05-09T03:20:23.714Z,56.1
2016-05-09T03:21:23.764Z,56.77
2016-05-09T03:22:23.797Z,56.56
2016-05-09T03:23:23.832Z,56.39
2016-05-09T03:24:23.865Z,56.39
2016-05-09T03:25:23.899Z,56.39
2016-05-09T03:26:23.777Z,56.3
2016-05-09T03:27:23.983Z,56.59
2016-05-09T03:28:24.017Z,56.68
2016-05-09T03:29:24.285Z,56.3
2016-05-09T03:30:23.929Z,56.56
2016-05-09T03:31:24.118Z,57.04
2016-05-09T03:32:24.168Z,58.37
2016-05-09T03:33:24.201Z,57.99
2016-05-09T03:34:24.237Z,57.99
2016-05-09T03:35:24.270Z,58.28
2016-05-09T03:36:24.320Z,58.47
2016-05-09T03:37:24.353Z,58.28
2016-05-09T03:38:24.388Z,58.37
2016-05-09T03:39:24.421Z,58.47
2016-05-09T03:40:24.456Z,58.28
2016-05-09T03:41:24.505Z,58.28
2016-05-09T03:42:24.539Z,58.37
2016-05-09T03:43:24.416Z,58.95
2016-05-09T03:44:25.685Z,58.37
2016-05-09T03:45:24.641Z,58.76
2016-05-09T03:46:24.675Z,58.18
2016-05-09T03:47:24.708Z,57.42
2016-05-09T03:48:24.742Z,58.18
2016-05-09T03:49:30.777Z,58.28
2016-05-09T03:50:24.825Z,58.47
2016-05-09T03:51:24.875Z,58.28
2016-05-09T03:52:24.894Z,58.66
2016-05-09T03:53:24.943Z,58.37
2016-05-09T03:54:24.961Z,59.14
2016-05-09T03:55:25.011Z,59.81
2016-05-09T03:56:25.046Z,59.49
2016-05-09T03:57:25.079Z,59.3
2016-05-09T03:58:25.113Z,59.69
2016-05-09T03:59:25.006Z,59.2
2016-05-09T04:00:25.197Z,59.49
2016-05-09T04:01:25.230Z,58.83
2016-05-09T04:02:25.249Z,59.14
2016-05-09T04:03:25.298Z,59.14
2016-05-09T04:04:25.332Z,59.14
2016-05-09T04:05:25.381Z,58.95
2016-05-09T04:06:25.416Z,58.86
2016-05-09T04:07:25.293Z,59.14
2016-05-09T04:08:25.328Z,59.05
2016-05-09T04:09:25.361Z,59.14
2016-05-09T04:10:25.567Z,59.14
2016-05-09T04:11:25.444Z,58.86
2016-05-09T04:12:25.635Z,58.86
2016-05-09T04:13:25.670Z,59.52
2016-05-09T04:14:25.703Z,59.2
2016-05-09T04:15:25.736Z,58.95
2016-05-09T04:16:25.770Z,59.05
2016-05-09T04:17:25.805Z,59.05
2016-05-09T04:18:25.839Z,58.95
2016-05-09T04:19:25.889Z,59.23
2016-05-09T04:20:25.766Z,59.52
2016-05-09T04:21:25.799Z,59.43
2016-05-09T04:22:25.990Z,59.59
2016-05-09T04:23:26.024Z,59.49
2016-05-09T04:24:26.074Z,59.33
2016-05-09T04:25:26.108Z,58.95
2016-05-09T04:26:26.141Z,59.14
2016-05-09T04:27:26.175Z,59.14
2016-05-09T04:28:26.210Z,59.23
2016-05-09T04:29:26.759Z,58.56
2016-05-09T04:30:26.324Z,57.99
2016-05-09T04:31:26.311Z,56.97
2016-05-09T04:32:26.360Z,55.82
2016-05-09T04:33:26.395Z,55.18
2016-05-09T04:34:26.429Z,53.19
2016-05-09T04:35:26.306Z,51.87
2016-05-09T04:36:26.496Z,49.88
2016-05-09T04:37:26.531Z,49.05
2016-05-09T04:38:26.580Z,47.34
2016-05-09T04:39:26.614Z,46.69
2016-05-09T04:40:26.648Z,46.12
2016-05-09T04:41:26.681Z,45.47
2016-05-09T04:42:26.731Z,45.28
2016-05-09T04:43:26.765Z,46.33
2016-05-09T04:44:26.987Z,46.12
2016-05-09T04:45:26.834Z,47.25
2016-05-09T04:46:26.711Z,49.07
2016-05-09T04:47:26.916Z,50.08
2016-05-09T04:48:26.950Z,51.3
2016-05-09T04:49:26.985Z,52.36
2016-05-09T04:50:27.018Z,52.36
2016-05-09T04:51:27.053Z,52.42
2016-05-09T04:52:27.102Z,52.52
2016-05-09T04:53:26.980Z,53
2016-05-09T04:54:27.013Z,53.48
2016-05-09T04:55:27.205Z,53.77
2016-05-09T04:56:27.097Z,54.05
2016-05-09T04:57:27.131Z,54.03
2016-05-09T04:58:27.321Z,53.77
2016-05-09T04:59:28.871Z,54.44
2016-05-09T05:00:27.404Z,54.41
2016-05-09T05:01:27.283Z,54.6
2016-05-09T05:02:27.316Z,54.79
2016-05-09T05:03:27.522Z,55.27
2016-05-09T05:04:27.556Z,55.18
2016-05-09T05:05:27.590Z,55.56
2016-05-09T05:06:27.624Z,55.56
2016-05-09T05:07:27.658Z,55.18
2016-05-09T05:08:27.707Z,54.99
2016-05-09T05:09:27.742Z,54.7
2016-05-09T05:10:27.776Z,54.41
2016-05-09T05:11:27.715Z,54.53
2016-05-09T05:12:27.859Z,54.53
2016-05-09T05:13:27.893Z,54.72
2016-05-09T05:14:27.770Z,55.01
2016-05-09T05:15:27.961Z,54.53
2016-05-09T05:16:28.010Z,53.77
2016-05-09T05:17:27.889Z,53.77
2016-05-09T05:18:28.094Z,54.34
2016-05-09T05:19:28.112Z,54.34
2016-05-09T05:20:28.161Z,54.63
2016-05-09T05:21:28.195Z,54.34
2016-05-09T05:22:28.229Z,54.34
2016-05-09T05:23:28.264Z,54.63
2016-05-09T05:24:28.314Z,54.44
2016-05-09T05:25:28.347Z,53.77
2016-05-09T05:26:28.380Z,53.28
2016-05-09T05:27:28.274Z,53.38
2016-05-09T05:28:28.464Z,53.41
2016-05-09T05:29:28.342Z,53.58
2016-05-09T05:30:28.549Z,54.24
2016-05-09T05:31:28.582Z,53.86
2016-05-09T05:32:28.615Z,53.41
2016-05-09T05:33:28.649Z,53.41
2016-05-09T05:34:28.684Z,54.44
2016-05-09T05:35:28.733Z,54.05
2016-05-09T05:36:28.783Z,54.56
2016-05-09T05:37:28.801Z,54.53
2016-05-09T05:38:28.851Z,53.89
2016-05-09T05:39:28.884Z,53.28
2016-05-09T05:40:28.918Z,53.31
2016-05-09T05:41:28.953Z,53.31
2016-05-09T05:42:28.987Z,53.5
2016-05-09T05:43:29.036Z,52.36
2016-05-09T05:44:29.070Z,52.36
2016-05-09T05:45:29.104Z,51.97
2016-05-09T05:46:29.154Z,51.71
2016-05-09T05:47:29.172Z,51.14
2016-05-09T05:48:29.222Z,52
2016-05-09T05:49:29.255Z,51.51
2016-05-09T05:50:29.133Z,51.42
2016-05-09T05:51:29.322Z,51.42
2016-05-09T05:52:29.372Z,51.14
2016-05-09T05:53:29.407Z,51.61
2016-05-09T05:54:29.456Z,52.09
2016-05-09T05:55:29.491Z,52
2016-05-09T05:56:29.524Z,51.71
2016-05-09T05:57:29.558Z,51.51
2016-05-09T05:58:29.591Z,52
2016-05-09T05:59:29.641Z,52
2016-05-09T06:00:29.718Z,51.71
2016-05-09T06:01:29.812Z,50.75
2016-05-09T06:02:29.905Z,50.46
2016-05-09T06:03:29.812Z,50.58
2016-05-09T06:04:30.046Z,51.54
2016-05-09T06:05:30.111Z,51.32
2016-05-09T06:06:30.005Z,51.42
2016-05-09T06:07:30.225Z,51.23
2016-05-09T06:08:30.260Z,52
2016-05-09T06:09:30.310Z,51.61
2016-05-09T06:10:30.349Z,51.71
2016-05-09T06:11:30.404Z,50.58
2016-05-09T06:12:30.444Z,51.93
2016-05-09T06:13:30.489Z,51.61
2016-05-09T06:14:30.529Z,52.12
2016-05-09T06:15:30.581Z,51.54
2016-05-09T06:16:30.616Z,51.35
2016-05-09T06:17:30.668Z,51.64
2016-05-09T06:18:30.704Z,51.93
2016-05-09T06:19:30.739Z,51.83
2016-05-09T06:20:30.773Z,51.93
2016-05-09T06:21:30.809Z,51.73
2016-05-09T06:22:30.859Z,51.64
2016-05-09T06:23:30.893Z,50.87
2016-05-09T06:24:30.928Z,50.2
2016-05-09T06:25:30.978Z,50.96
2016-05-09T06:26:31.012Z,50.29
2016-05-09T06:27:31.062Z,50.29
2016-05-09T06:28:31.095Z,50.78
2016-05-09T06:29:31.020Z,50.9
2016-05-09T06:30:31.008Z,50.49
2016-05-09T06:31:31.197Z,50.39
2016-05-09T06:32:31.246Z,50.42
2016-05-09T06:33:31.124Z,49.55
2016-05-09T06:34:31.314Z,49.74
2016-05-09T06:35:31.349Z,50.13
2016-05-09T06:36:31.399Z,50.61
2016-05-09T06:37:31.432Z,50.51
2016-05-09T06:38:31.466Z,49.84
2016-05-09T06:39:31.516Z,50.13
2016-05-09T06:40:31.534Z,49.84
2016-05-09T06:41:31.802Z,49.65
2016-05-09T06:42:31.618Z,49.74
2016-05-09T06:43:31.651Z,49.36
2016-05-09T06:44:32.046Z,49.55
2016-05-09T06:45:31.735Z,49.84
2016-05-09T06:46:31.785Z,49.67
2016-05-09T06:47:31.818Z,49.87
2016-05-09T06:48:31.852Z,49.65
2016-05-09T06:49:31.887Z,49.84
2016-05-09T06:50:31.920Z,50.03
2016-05-09T06:51:31.970Z,49.19
2016-05-09T06:52:32.003Z,49.38
2016-05-09T06:53:32.037Z,49
2016-05-09T06:54:32.087Z,48.52
2016-05-09T06:55:32.121Z,49.26
2016-05-09T06:56:32.156Z,49.07
2016-05-09T06:57:32.189Z,48.97
2016-05-09T06:58:32.239Z,49.1
2016-05-09T06:59:32.554Z,48.04
2016-05-09T07:00:32.306Z,49.19
2016-05-09T07:01:32.356Z,49.1
2016-05-09T07:02:32.389Z,48.61
2016-05-09T07:03:32.424Z,47.85
2016-05-09T07:04:32.458Z,48.23
2016-05-09T07:05:32.507Z,47.85
2016-05-09T07:06:32.542Z,47.94
2016-05-09T07:07:32.575Z,48.23
2016-05-09T07:08:32.625Z,48.04
2016-05-09T07:09:32.658Z,47.36
2016-05-09T07:10:32.708Z,47.58
2016-05-09T07:11:32.743Z,47.58
2016-05-09T07:12:32.777Z,46.5
2016-05-09T07:13:32.670Z,46.41
2016-05-09T07:14:33.204Z,46.04
2016-05-09T07:15:32.894Z,46.69
2016-05-09T07:16:32.927Z,46.04
2016-05-09T07:17:32.962Z,46.04
2016-05-09T07:18:33.012Z,46.53
2016-05-09T07:19:33.045Z,46.23
2016-05-09T07:20:33.079Z,46.91
2016-05-09T07:21:33.129Z,46.53
2016-05-09T07:22:33.162Z,46.43
2016-05-09T07:23:33.196Z,46.43
2016-05-09T07:24:33.246Z,46.62
2016-05-09T07:25:33.296Z,46.33
2016-05-09T07:26:33.329Z,46.14
2016-05-09T07:27:33.379Z,46.04
2016-05-09T07:28:33.398Z,46.23
2016-05-09T07:29:33.432Z,46.26
2016-05-09T07:30:33.465Z,46.23
2016-05-09T07:31:33.514Z,46.06
2016-05-09T07:32:33.550Z,46.33
2016-05-09T07:33:33.583Z,46.45
2016-05-09T07:34:33.633Z,46.06
2016-05-09T07:35:33.667Z,45.49
2016-05-09T07:36:33.700Z,45.87
2016-05-09T07:37:33.734Z,45.68
2016-05-09T07:38:33.784Z,45.01
2016-05-09T07:39:33.818Z,45.2
2016-05-09T07:40:33.867Z,44.91
2016-05-09T07:41:33.902Z,43.49
2016-05-09T07:42:33.951Z,43.51
2016-05-09T07:43:35.250Z,43.13
2016-05-09T07:44:34.019Z,43.3
2016-05-09T07:45:34.052Z,42.07
2016-05-09T07:46:34.102Z,42.55
2016-05-09T07:47:34.152Z,41.22
2016-05-09T07:48:34.123Z,41.44
2016-05-09T07:49:34.205Z,40.76
2016-05-09T07:50:34.098Z,40.76
2016-05-09T07:51:34.293Z,37.96
2016-05-09T07:52:34.343Z,36.17
2016-05-09T07:53:34.876Z,34.38
2016-05-09T07:54:34.423Z,32.76
2016-05-09T07:55:34.453Z,31.62
2016-05-09T07:56:34.488Z,30.86
2016-05-09T07:57:34.552Z,29.92
2016-05-09T07:58:34.587Z,29.06
2016-05-09T07:59:34.621Z,29.27
2016-05-09T08:00:34.654Z,29.34
2016-05-09T08:01:34.704Z,28.77
2016-05-09T08:02:34.738Z,28.3
2016-05-09T08:03:34.787Z,28.69
2016-05-09T08:04:34.681Z,28.41
2016-05-09T08:05:44.059Z,27.54
2016-05-09T08:07:37.439Z,28.03
2016-05-09T08:08:37.738Z,28.13
2016-05-09T08:09:40.070Z,28.4
2016-05-09T08:10:35.088Z,29.94
2016-05-09T08:11:37.918Z,29.24
2016-05-09T08:12:35.031Z,28.4
2016-05-09T08:13:35.080Z,27.45
2016-05-09T08:14:35.270Z,28.8
2016-05-09T08:15:35.336Z,28.77
2016-05-09T08:16:35.370Z,28.49
2016-05-09T08:17:35.404Z,29.26
2016-05-09T08:18:35.687Z,28.49
2016-05-09T08:19:35.502Z,29.06
2016-05-09T08:20:35.396Z,27.51
2016-05-09T08:21:35.586Z,28.2
2016-05-09T08:22:35.635Z,27.72
2016-05-09T08:23:36.014Z,27.53
2016-05-09T08:24:35.736Z,28.4
2016-05-09T08:25:35.769Z,27.14
2016-05-09T08:26:35.819Z,26.95
2016-05-09T08:27:35.868Z,26.57
2016-05-09T08:28:35.917Z,25.32
2016-05-09T08:29:35.827Z,25.43
2016-05-09T08:30:36.016Z,26.09
2016-05-09T08:31:35.894Z,27.17
2016-05-09T08:32:36.100Z,25.99
2016-05-09T08:33:36.165Z,25.62
2016-05-09T08:34:36.199Z,25.04
2016-05-09T08:35:36.093Z,25.63
2016-05-09T08:36:36.283Z,25.71
2016-05-09T08:37:36.332Z,24.37
2016-05-09T08:38:36.397Z,24.28
2016-05-09T08:39:36.431Z,25.14
2016-05-09T08:40:36.513Z,25.52
2016-05-09T08:41:36.531Z,25.23
2016-05-09T08:42:36.580Z,25.43
2016-05-09T08:43:36.614Z,25.03
2016-05-09T08:44:36.804Z,25.62
2016-05-09T08:45:36.729Z,25.51
2016-05-09T08:46:36.762Z,25.21
2016-05-09T08:47:36.812Z,26.39
2016-05-09T08:48:36.878Z,26.93
2016-05-09T08:49:36.911Z,27.24
2016-05-09T08:50:36.961Z,27.91
2016-05-09T08:51:37.011Z,28.58
2016-05-09T08:52:37.061Z,29.88
2016-05-09T08:53:37.094Z,29.78
2016-05-09T08:54:37.144Z,30.55
2016-05-09T08:55:37.194Z,30.93
2016-05-09T08:56:37.242Z,29.59
2016-05-09T08:57:37.136Z,28.65
2016-05-09T08:58:37.186Z,28.36
2016-05-09T08:59:37.375Z,29.41
2016-05-09T09:00:37.425Z,29.6
2016-05-09T09:01:37.475Z,29.71
2016-05-09T09:02:37.540Z,29.22
2016-05-09T09:03:37.558Z,29.81
2016-05-09T09:04:37.608Z,29.12
2016-05-09T09:05:37.657Z,28.66
2016-05-09T09:06:37.707Z,28.76
2016-05-09T09:07:37.756Z,29.03
2016-05-09T09:08:37.807Z,28.56
2016-05-09T09:09:37.856Z,28.28
2016-05-09T09:10:37.889Z,27.04
2016-05-09T09:11:37.939Z,25.78
2016-05-09T09:12:37.818Z,25.13
2016-05-09T09:13:38.023Z,24.85
2016-05-09T09:14:38.073Z,26.6
2016-05-09T09:15:38.123Z,25.79
2016-05-09T09:16:38.171Z,25.81
2016-05-09T09:17:38.206Z,25.03
2016-05-09T09:18:38.256Z,24.56
2016-05-09T09:19:38.304Z,25.9
2016-05-09T09:20:38.354Z,25.79
2016-05-09T09:21:38.403Z,25.43
2016-05-09T09:22:38.453Z,27.06
2016-05-09T09:23:38.487Z,26.85
2016-05-09T09:24:38.537Z,25.41
2016-05-09T09:25:38.586Z,23.99
2016-05-09T09:26:38.620Z,25.65
2016-05-09T09:27:38.686Z,27.15
2016-05-09T09:28:38.563Z,25.02
2016-05-09T09:29:38.769Z,25.52
2016-05-09T09:30:38.818Z,26.37
2016-05-09T09:31:38.869Z,24.54
2016-05-09T09:32:38.902Z,23.1
2016-05-09T09:33:38.967Z,23.32
2016-05-09T09:34:39.002Z,22.94
2016-05-09T09:35:39.066Z,22.85
2016-05-09T09:36:39.100Z,22.47
2016-05-09T09:37:39.150Z,22.09
2016-05-09T09:38:39.199Z,23.73
2016-05-09T09:39:39.249Z,23.63
2016-05-09T09:40:39.299Z,23.42
2016-05-09T09:41:39.192Z,23.9
2016-05-09T09:42:39.398Z,24.18
2016-05-09T09:43:40.931Z,24.74
2016-05-09T09:44:39.497Z,24.65
2016-05-09T09:45:39.531Z,22.62
2016-05-09T09:46:39.595Z,22.82
2016-05-09T09:47:39.630Z,23.31
2016-05-09T09:48:39.695Z,25.13
2016-05-09T09:49:39.729Z,26.16
2016-05-09T09:50:39.778Z,24.63
2016-05-09T09:51:39.828Z,26.09
2016-05-09T09:52:39.878Z,26.26
2016-05-09T09:53:39.928Z,25.56
2016-05-09T09:54:39.978Z,24.99
2016-05-09T09:55:40.026Z,23.37
2016-05-09T09:56:40.076Z,23.38
2016-05-09T09:57:40.125Z,23.19
2016-05-09T09:58:40.175Z,22.42
2016-05-09T09:59:40.224Z,23.6
2016-05-09T10:00:40.274Z,25.9
2016-05-09T10:01:40.309Z,25.1
2016-05-09T10:02:40.374Z,24.73
2016-05-09T10:03:40.267Z,23.86
2016-05-09T10:04:40.473Z,23.2
2016-05-09T10:05:40.507Z,22.42
2016-05-09T10:06:40.555Z,24.18
2016-05-09T10:07:40.621Z,23.87
2016-05-09T10:08:40.499Z,23.87
2016-05-09T10:09:40.704Z,24.16
2016-05-09T10:10:40.754Z,23.09
2016-05-09T10:11:40.804Z,21.85
2016-05-09T10:12:40.854Z,21.39
2016-05-09T10:13:40.904Z,21.68
2016-05-09T10:14:40.952Z,21
2016-05-09T10:15:41.002Z,21.58
2016-05-09T10:16:41.068Z,21.28
2016-05-09T10:17:41.101Z,22.44
2016-05-09T10:18:41.151Z,21.95
2016-05-09T10:19:41.201Z,21.47
2016-05-09T10:20:41.250Z,22.75
2016-05-09T10:21:41.300Z,23.68
2016-05-09T10:22:41.365Z,22.72
2016-05-09T10:23:41.398Z,21.47
2016-05-09T10:24:41.448Z,22.54
2016-05-09T10:25:41.498Z,22.45
2016-05-09T10:26:41.391Z,21.47
2016-05-09T10:27:41.597Z,21.39
2016-05-09T10:28:41.647Z,21.78
2016-05-09T10:29:41.697Z,21.29
2016-05-09T10:30:41.745Z,21.57
2016-05-09T10:31:41.811Z,22.16
2016-05-09T10:32:41.844Z,22.53
2016-05-09T10:33:41.911Z,21.47
2016-05-09T10:34:41.960Z,20.8
2016-05-09T10:35:41.994Z,21.59
2016-05-09T10:36:42.058Z,21.29
2016-05-09T10:37:42.124Z,21.01
2016-05-09T10:38:42.157Z,21.5
2016-05-09T10:39:42.207Z,22.27
2016-05-09T10:40:42.101Z,24.35
2016-05-09T10:41:42.150Z,24.34
2016-05-09T10:42:42.372Z,24.84
2016-05-09T10:43:43.140Z,23.59
2016-05-09T10:44:42.487Z,22.05
2016-05-09T10:45:42.520Z,21.37
2016-05-09T10:46:42.554Z,21.19
2016-05-09T10:47:42.604Z,22.36
2016-05-09T10:48:42.669Z,20.99
2016-05-09T10:49:42.718Z,21.2
2016-05-09T10:50:42.768Z,21.2
2016-05-09T10:51:42.817Z,21.11
2016-05-09T10:52:42.867Z,20.73
2016-05-09T10:53:42.917Z,21.5
2016-05-09T10:54:42.967Z,21.48
2016-05-09T10:55:43.017Z,20.04
2016-05-09T10:56:43.065Z,20.83
2016-05-09T10:57:43.115Z,21.5
2016-05-09T10:58:43.164Z,21.11
2016-05-09T10:59:43.214Z,20.83
2016-05-09T11:00:43.280Z,19.86
2016-05-09T11:01:43.313Z,19.29
2016-05-09T11:02:43.378Z,18.71
2016-05-09T11:03:43.428Z,20.86
2016-05-09T11:04:43.477Z,20.04
2016-05-09T11:05:43.543Z,20.83
2016-05-09T11:06:43.577Z,20.04
2016-05-09T11:07:43.627Z,19.75
2016-05-09T11:08:43.691Z,20.54
2016-05-09T11:09:43.725Z,19.08
2016-05-09T11:10:43.790Z,19.96
2016-05-09T11:11:43.855Z,21.31
2016-05-09T11:12:43.891Z,22.54
2016-05-09T11:13:43.955Z,22.24
2016-05-09T11:14:44.271Z,21.17
2016-05-09T11:15:43.898Z,20.61
2016-05-09T11:16:44.103Z,22.27
2016-05-09T11:17:44.012Z,21.68
2016-05-09T11:18:44.218Z,20.8
2016-05-09T11:19:44.096Z,21.01
2016-05-09T11:20:44.317Z,21.4
2016-05-09T11:21:44.367Z,21.86
2016-05-09T11:22:44.417Z,20.52
2016-05-09T11:23:44.467Z,19.95
2016-05-09T11:24:44.516Z,19.29
2016-05-09T11:25:44.565Z,19.29
2016-05-09T11:26:44.615Z,19.39
2016-05-09T11:27:44.665Z,18.8
2016-05-09T11:28:44.573Z,19.01
2016-05-09T11:29:44.778Z,19.2
2016-05-09T11:30:44.845Z,18.72
2016-05-09T11:31:44.894Z,17.65
2016-05-09T11:32:44.928Z,18.33
2016-05-09T11:33:44.993Z,20.27
2016-05-09T11:34:44.886Z,21.22
2016-05-09T11:35:45.108Z,20.9
2016-05-09T11:36:45.158Z,20.24
2016-05-09T11:37:45.208Z,20.93
2016-05-09T11:38:45.257Z,18.88
2016-05-09T11:39:45.322Z,19
2016-05-09T11:40:45.356Z,19.5
2016-05-09T11:41:45.249Z,19.19
2016-05-09T11:42:45.471Z,19.59
2016-05-09T11:43:45.364Z,20.84
2016-05-09T11:44:45.585Z,21.6
2016-05-09T11:45:45.619Z,21.2
2016-05-09T11:46:45.528Z,21.99
2016-05-09T11:47:45.735Z,20.63
2016-05-09T11:48:45.784Z,21.61
2016-05-09T11:49:45.676Z,21.68
2016-05-09T11:50:45.726Z,21.6
2016-05-09T11:51:45.948Z,21.2
2016-05-09T11:52:45.998Z,19.94
2016-05-09T11:53:46.079Z,20.92
2016-05-09T11:54:46.096Z,21.3
2016-05-09T11:55:46.161Z,22.35
2016-05-09T11:56:46.211Z,22.53
2016-05-09T11:57:46.262Z,21.29
2016-05-09T11:58:46.154Z,22.19
2016-05-09T11:59:46.375Z,23.32
2016-05-09T12:00:46.425Z,22.85
2016-05-09T12:01:46.475Z,22.25
2016-05-09T12:02:46.525Z,21.98
2016-05-09T12:03:46.575Z,22.47
2016-05-09T12:04:46.639Z,22.35
2016-05-09T12:05:46.688Z,21.78
2016-05-09T12:06:46.738Z,20.81
2016-05-09T12:07:46.804Z,20.24
2016-05-09T12:08:46.853Z,19.65
2016-05-09T12:09:46.918Z,19.08
2016-05-09T12:10:46.811Z,18.41
2016-05-09T12:11:47.001Z,18.62
2016-05-09T12:12:47.067Z,18.8
2016-05-09T12:13:47.116Z,18.62
2016-05-09T12:14:47.260Z,19
2016-05-09T12:15:47.059Z,20.94
2016-05-09T12:16:47.265Z,21.2
2016-05-09T12:17:47.315Z,21.12
2016-05-09T12:18:47.380Z,21.09
2016-05-09T12:19:47.445Z,20.14
2016-05-09T12:20:47.479Z,20.25
2016-05-09T12:21:47.544Z,20.92
2016-05-09T12:22:47.438Z,20.51
2016-05-09T12:23:47.487Z,20.42
2016-05-09T12:24:47.692Z,20.61
2016-05-09T12:25:47.742Z,20.03
2016-05-09T12:26:47.807Z,19.37
2016-05-09T12:27:47.842Z,18.79
2016-05-09T12:28:47.907Z,17.74
2016-05-09T12:29:47.956Z,19.02
2016-05-09T12:30:48.022Z,19.2
2016-05-09T12:31:48.071Z,20.16
2016-05-09T12:32:48.121Z,19.07
2016-05-09T12:33:48.170Z,18.41
2016-05-09T12:34:48.220Z,17.74
2016-05-09T12:35:48.300Z,18.62
2016-05-09T12:36:48.334Z,18.32
2016-05-09T12:37:48.384Z,18.6
2016-05-09T12:38:48.433Z,18.4
2016-05-09T12:39:48.499Z,18.5
2016-05-09T12:40:48.392Z,18.7
2016-05-09T12:41:48.598Z,19.29
2016-05-09T12:42:48.663Z,20.04
2016-05-09T12:43:48.571Z,19.73
2016-05-09T12:44:50.091Z,19.15
2016-05-09T12:45:48.828Z,19.83
2016-05-09T12:46:48.861Z,20.22
2016-05-09T12:47:48.927Z,20.99
2016-05-09T12:48:56.273Z,20.88
2016-05-09T12:49:49.027Z,20.89
2016-05-09T12:50:49.091Z,21.37
2016-05-09T12:51:49.125Z,20.88
2016-05-09T12:52:49.018Z,19.93
2016-05-09T12:53:49.270Z,21
2016-05-09T12:54:49.133Z,20.89
2016-05-09T12:55:49.340Z,20.01
2016-05-09T12:56:49.388Z,20.8
2016-05-09T12:57:49.438Z,20.51